sensor_id;sensor_type;location;lat;lon;timestamp;pressure;altitude;pressure_sealevel;temperature;humidity
66857;BME280;53766;50.280;19.160;2023-04-04T00:00:51;99103.03;;;17.01;43.15
66857;BME280;53766;50.280;19.160;2023-04-04T00:03:19;99105.06;;;16.99;43.06
66857;BME280;53766;50.280;19.160;2023-04-04T00:05:46;99105.06;;;16.99;43.06
66857;BME280;53766;50.280;19.160;2023-04-04T00:08:14;99100.72;;;16.98;43.11
66857;BME280;53766;50.280;19.160;2023-04-04T00:10:42;99095.59;;;16.96;43.00
66857;BME280;53766;50.280;19.160;2023-04-04T00:13:10;99095.59;;;16.96;43.00
66857;BME280;53766;50.280;19.160;2023-04-04T00:15:37;99087.78;;;16.95;42.96
66857;BME280;53766;50.280;19.160;2023-04-04T00:18:05;99092.94;;;16.96;42.95
66857;BME280;53766;50.280;19.160;2023-04-04T00:20:32;99087.78;;;16.95;42.98
66857;BME280;53766;50.280;19.160;2023-04-04T00:23:00;99079.16;;;16.93;42.93
66857;BME280;53766;50.280;19.160;2023-04-04T00:25:27;99088.78;;;16.94;42.90
66857;BME280;53766;50.280;19.160;2023-04-04T00:27:54;99087.13;;;16.93;42.75
66857;BME280;53766;50.280;19.160;2023-04-04T00:30:27;99081.16;;;16.91;42.88
66857;BME280;53766;50.280;19.160;2023-04-04T00:32:54;99075.84;;;16.91;42.76
66857;BME280;53766;50.280;19.160;2023-04-04T00:35:23;99087.13;;;16.93;42.65
66857;BME280;53766;50.280;19.160;2023-04-04T00:37:50;99081.16;;;16.91;42.85
66857;BME280;53766;50.280;19.160;2023-04-04T00:40:18;99081.16;;;16.91;42.80
66857;BME280;53766;50.280;19.160;2023-04-04T00:42:45;99086.50;;;16.91;42.76
66857;BME280;53766;50.280;19.160;2023-04-04T00:45:13;99083.19;;;16.89;42.78
66857;BME280;53766;50.280;19.160;2023-04-04T00:47:42;99084.81;;;16.90;42.63
66857;BME280;53766;50.280;19.160;2023-04-04T00:50:10;99082.16;;;16.90;42.64
66857;BME280;53766;50.280;19.160;2023-04-04T00:52:37;99086.84;;;16.88;42.65
66857;BME280;53766;50.280;19.160;2023-04-04T00:55:05;99093.16;;;16.86;42.66
66857;BME280;53766;50.280;19.160;2023-04-04T00:57:33;99088.88;;;16.85;42.49
66857;BME280;53766;50.280;19.160;2023-04-04T01:00:02;99083.53;;;16.85;42.87
66857;BME280;53766;50.280;19.160;2023-04-04T01:02:34;99080.88;;;16.85;42.52
66857;BME280;53766;50.280;19.160;2023-04-04T01:05:02;99087.19;;;16.84;42.49
66857;BME280;53766;50.280;19.160;2023-04-04T01:07:33;99092.50;;;16.84;42.64
66857;BME280;53766;50.280;19.160;2023-04-04T01:10:04;99087.38;;;16.83;42.57
66857;BME280;53766;50.280;19.160;2023-04-04T01:12:31;99095.53;;;16.81;42.56
66857;BME280;53766;50.280;19.160;2023-04-04T01:15:00;99092.88;;;16.81;42.52
66857;BME280;53766;50.280;19.160;2023-04-04T01:17:28;99087.56;;;16.81;42.40
66857;BME280;53766;50.280;19.160;2023-04-04T01:22:33;99083.06;;;16.82;42.44
66857;BME280;53766;50.280;19.160;2023-04-04T01:25:03;99085.88;;;16.80;42.47
66857;BME280;53766;50.280;19.160;2023-04-04T01:27:33;99077.22;;;16.78;42.47
66857;BME280;53766;50.280;19.160;2023-04-04T01:30:01;99074.56;;;16.78;42.46
66857;BME280;53766;50.280;19.160;2023-04-04T01:35:22;99088.88;;;16.77;42.29
66857;BME280;53766;50.280;19.160;2023-04-04T01:38:01;99087.88;;;16.78;42.37
66857;BME280;53766;50.280;19.160;2023-04-04T01:40:34;99087.88;;;16.78;42.47
66857;BME280;53766;50.280;19.160;2023-04-04T01:43:03;99101.03;;;16.80;42.60
66857;BME280;53766;50.280;19.160;2023-04-04T01:45:32;99100.19;;;16.79;42.56
66857;BME280;53766;50.280;19.160;2023-04-04T01:47:59;99100.88;;;16.81;42.65
66857;BME280;53766;50.280;19.160;2023-04-04T01:50:27;99091.22;;;16.80;42.68
66857;BME280;53766;50.280;19.160;2023-04-04T01:52:54;99092.88;;;16.81;42.67
66857;BME280;53766;50.280;19.160;2023-04-04T01:55:22;99098.19;;;16.81;42.64
66857;BME280;53766;50.280;19.160;2023-04-04T01:57:50;99096.19;;;16.83;42.81
66857;BME280;53766;50.280;19.160;2023-04-04T02:00:18;99109.66;;;16.82;42.62
66857;BME280;53766;50.280;19.160;2023-04-04T02:02:46;99091.22;;;16.80;42.83
66857;BME280;53766;50.280;19.160;2023-04-04T02:05:13;99106.19;;;16.81;42.67
66857;BME280;53766;50.280;19.160;2023-04-04T02:07:40;99100.19;;;16.79;42.78
66857;BME280;53766;50.280;19.160;2023-04-04T02:10:08;99094.84;;;16.79;42.80
66857;BME280;53766;50.280;19.160;2023-04-04T02:12:36;99095.72;;;16.80;42.77
66857;BME280;53766;50.280;19.160;2023-04-04T02:15:04;99102.84;;;16.79;42.82
66857;BME280;53766;50.280;19.160;2023-04-04T02:17:32;99097.53;;;16.79;43.00
66857;BME280;53766;50.280;19.160;2023-04-04T02:20:02;99109.16;;;16.78;42.96
66857;BME280;53766;50.280;19.160;2023-04-04T02:22:30;99109.16;;;16.78;42.96
66857;BME280;53766;50.280;19.160;2023-04-04T02:24:57;99103.81;;;16.78;42.88
66857;BME280;53766;50.280;19.160;2023-04-04T02:27:26;99108.16;;;16.79;42.90
66857;BME280;53766;50.280;19.160;2023-04-04T02:29:54;99107.50;;;16.77;42.98
66857;BME280;53766;50.280;19.160;2023-04-04T02:32:22;99102.19;;;16.77;42.91
66857;BME280;53766;50.280;19.160;2023-04-04T02:34:50;99102.19;;;16.77;42.78
66857;BME280;53766;50.280;19.160;2023-04-04T02:37:17;99105.84;;;16.76;42.87
66857;BME280;53766;50.280;19.160;2023-04-04T02:39:45;99107.50;;;16.77;42.98
66857;BME280;53766;50.280;19.160;2023-04-04T02:42:12;99102.53;;;16.74;42.96
66857;BME280;53766;50.280;19.160;2023-04-04T02:44:40;99104.38;;;16.74;42.96
66857;BME280;53766;50.280;19.160;2023-04-04T02:47:09;99108.69;;;16.75;43.03
66857;BME280;53766;50.280;19.160;2023-04-04T02:49:36;99105.19;;;16.74;42.93
66857;BME280;53766;50.280;19.160;2023-04-04T02:52:04;99105.38;;;16.73;42.93
66857;BME280;53766;50.280;19.160;2023-04-04T02:54:32;99101.69;;;16.74;42.94
66857;BME280;53766;50.280;19.160;2023-04-04T02:56:59;99099.22;;;16.72;43.02
66857;BME280;53766;50.280;19.160;2023-04-04T02:59:27;99100.72;;;16.75;42.92
66857;BME280;53766;50.280;19.160;2023-04-04T03:01:55;99100.88;;;16.73;42.95
66857;BME280;53766;50.280;19.160;2023-04-04T03:04:23;99100.22;;;16.71;43.00
66857;BME280;53766;50.280;19.160;2023-04-04T03:06:51;99095.94;;;16.70;43.11
66857;BME280;53766;50.280;19.160;2023-04-04T03:09:18;99102.06;;;16.71;43.02
66857;BME280;53766;50.280;19.160;2023-04-04T03:11:45;99097.56;;;16.71;42.99
66857;BME280;53766;50.280;19.160;2023-04-04T03:14:13;99103.91;;;16.70;42.96
66857;BME280;53766;50.280;19.160;2023-04-04T03:16:40;99103.06;;;16.70;42.96
66857;BME280;53766;50.280;19.160;2023-04-04T03:19:08;99097.94;;;16.68;43.08
66857;BME280;53766;50.280;19.160;2023-04-04T03:21:35;99099.75;;;16.67;43.01
66857;BME280;53766;50.280;19.160;2023-04-04T03:24:03;99100.75;;;16.66;43.06
66857;BME280;53766;50.280;19.160;2023-04-04T03:26:30;99103.41;;;16.66;42.91
66857;BME280;53766;50.280;19.160;2023-04-04T03:28:58;99100.94;;;16.65;42.95
66857;BME280;53766;50.280;19.160;2023-04-04T03:31:25;99099.28;;;16.64;42.90
66857;BME280;53766;50.280;19.160;2023-04-04T03:33:53;99098.28;;;16.65;42.97
66857;BME280;53766;50.280;19.160;2023-04-04T03:36:21;99101.09;;;16.63;42.98
66857;BME280;53766;50.280;19.160;2023-04-04T03:38:49;99092.94;;;16.65;42.83
66857;BME280;53766;50.280;19.160;2023-04-04T03:41:16;99098.28;;;16.65;42.93
66857;BME280;53766;50.280;19.160;2023-04-04T03:43:44;99096.63;;;16.64;42.82
66857;BME280;53766;50.280;19.160;2023-04-04T03:46:11;99103.13;;;16.61;42.99
66857;BME280;53766;50.280;19.160;2023-04-04T03:48:39;99094.97;;;16.63;42.82
66857;BME280;53766;50.280;19.160;2023-04-04T03:51:06;99105.59;;;16.63;42.84
66857;BME280;53766;50.280;19.160;2023-04-04T03:53:35;99107.59;;;16.61;42.90
66857;BME280;53766;50.280;19.160;2023-04-04T03:56:02;99094.13;;;16.62;42.74
66857;BME280;53766;50.280;19.160;2023-04-04T03:58:30;99094.13;;;16.62;42.93
66857;BME280;53766;50.280;19.160;2023-04-04T04:00:57;99094.97;;;16.63;42.72
66857;BME280;53766;50.280;19.160;2023-04-04T04:03:25;99095.78;;;16.63;42.77
66857;BME280;53766;50.280;19.160;2023-04-04T04:05:52;99088.66;;;16.64;42.73
66857;BME280;53766;50.280;19.160;2023-04-04T04:08:20;99090.66;;;16.62;42.72
66857;BME280;53766;50.280;19.160;2023-04-04T04:10:50;99090.47;;;16.63;42.70
66857;BME280;53766;50.280;19.160;2023-04-04T04:13:18;99088.81;;;16.62;42.76
66857;BME280;53766;50.280;19.160;2023-04-04T04:15:45;99088.81;;;16.62;42.72
66857;BME280;53766;50.280;19.160;2023-04-04T04:18:13;99080.19;;;16.60;42.81
66857;BME280;53766;50.280;19.160;2023-04-04T04:20:40;99084.69;;;16.60;42.83
66857;BME280;53766;50.280;19.160;2023-04-04T04:23:08;99080.19;;;16.60;42.76
66857;BME280;53766;50.280;19.160;2023-04-04T04:25:35;99079.38;;;16.60;42.80
66857;BME280;53766;50.280;19.160;2023-04-04T04:28:03;99083.00;;;16.59;42.84
66857;BME280;53766;50.280;19.160;2023-04-04T04:30:30;99080.56;;;16.57;42.90
66857;BME280;53766;50.280;19.160;2023-04-04T04:32:58;99083.00;;;16.59;42.83
66857;BME280;53766;50.280;19.160;2023-04-04T04:35:25;99080.56;;;16.57;42.78
66857;BME280;53766;50.280;19.160;2023-04-04T04:37:54;99073.56;;;16.56;42.68
66857;BME280;53766;50.280;19.160;2023-04-04T04:40:21;99081.38;;;16.58;42.63
66857;BME280;53766;50.280;19.160;2023-04-04T04:42:49;99074.38;;;16.57;42.67
66857;BME280;53766;50.280;19.160;2023-04-04T04:45:18;99079.69;;;16.57;42.64
66857;BME280;53766;50.280;19.160;2023-04-04T04:47:46;99084.19;;;16.56;42.69
66857;BME280;53766;50.280;19.160;2023-04-04T04:50:13;99078.06;;;16.56;42.74
66857;BME280;53766;50.280;19.160;2023-04-04T04:52:41;99078.06;;;16.56;42.68
66857;BME280;53766;50.280;19.160;2023-04-04T04:55:09;99086.69;;;16.58;43.08
66857;BME280;53766;50.280;19.160;2023-04-04T04:57:37;99084.03;;;16.58;43.12
66857;BME280;53766;50.280;19.160;2023-04-04T05:00:05;99092.66;;;16.60;43.10
66857;BME280;53766;50.280;19.160;2023-04-04T05:02:33;99092.00;;;16.58;43.19
66857;BME280;53766;50.280;19.160;2023-04-04T05:05:00;99090.34;;;16.57;43.22
66857;BME280;53766;50.280;19.160;2023-04-04T05:07:28;99089.53;;;16.56;43.15
66857;BME280;53766;50.280;19.160;2023-04-04T05:09:55;99088.69;;;16.56;43.27
66857;BME280;53766;50.280;19.160;2023-04-04T05:12:23;99089.53;;;16.56;43.30
66857;BME280;53766;50.280;19.160;2023-04-04T05:14:50;99097.50;;;16.56;43.31
66857;BME280;53766;50.280;19.160;2023-04-04T05:17:18;99100.16;;;16.56;43.37
66857;BME280;53766;50.280;19.160;2023-04-04T05:19:45;99094.00;;;16.56;43.27
66857;BME280;53766;50.280;19.160;2023-04-04T05:22:13;99100.97;;;16.57;43.37
66857;BME280;53766;50.280;19.160;2023-04-04T05:24:40;99094.50;;;16.59;43.24
66857;BME280;53766;50.280;19.160;2023-04-04T05:27:09;99105.13;;;16.59;43.36
66857;BME280;53766;50.280;19.160;2023-04-04T05:29:36;99104.28;;;16.59;43.23
66857;BME280;53766;50.280;19.160;2023-04-04T05:32:04;99104.28;;;16.59;43.30
66857;BME280;53766;50.280;19.160;2023-04-04T05:34:31;99105.97;;;16.60;43.46
66857;BME280;53766;50.280;19.160;2023-04-04T05:36:59;99107.16;;;16.57;43.58
66857;BME280;53766;50.280;19.160;2023-04-04T05:39:27;99108.78;;;16.58;43.57
66857;BME280;53766;50.280;19.160;2023-04-04T05:41:55;99102.66;;;16.58;43.51
66857;BME280;53766;50.280;19.160;2023-04-04T05:44:22;99108.78;;;16.58;43.31
66857;BME280;53766;50.280;19.160;2023-04-04T05:46:49;99109.59;;;16.59;43.32
66857;BME280;53766;50.280;19.160;2023-04-04T05:49:17;99112.25;;;16.59;43.38
66857;BME280;53766;50.280;19.160;2023-04-04T05:51:44;99114.94;;;16.59;43.44
66857;BME280;53766;50.280;19.160;2023-04-04T05:54:12;99108.63;;;16.60;43.33
66857;BME280;53766;50.280;19.160;2023-04-04T05:56:39;99106.94;;;16.59;43.28
66857;BME280;53766;50.280;19.160;2023-04-04T05:59:07;99115.41;;;16.62;43.27
66857;BME280;53766;50.280;19.160;2023-04-04T06:01:34;99113.78;;;16.61;43.24
66857;BME280;53766;50.280;19.160;2023-04-04T06:04:02;99112.09;;;16.60;43.35
66857;BME280;53766;50.280;19.160;2023-04-04T06:06:29;99113.78;;;16.61;43.32
66857;BME280;53766;50.280;19.160;2023-04-04T06:08:57;99117.41;;;16.60;43.22
66857;BME280;53766;50.280;19.160;2023-04-04T06:11:24;99116.59;;;16.60;43.33
66857;BME280;53766;50.280;19.160;2023-04-04T06:13:52;99114.94;;;16.59;43.23
66857;BME280;53766;50.280;19.160;2023-04-04T06:16:21;99113.94;;;16.60;43.25
66857;BME280;53766;50.280;19.160;2023-04-04T06:18:49;99116.59;;;16.60;43.13
66857;BME280;53766;50.280;19.160;2023-04-04T06:21:17;99105.97;;;16.60;43.26
66857;BME280;53766;50.280;19.160;2023-04-04T06:23:44;99103.97;;;16.62;43.15
66857;BME280;53766;50.280;19.160;2023-04-04T06:26:12;99102.94;;;16.63;42.98
66857;BME280;53766;50.280;19.160;2023-04-04T06:28:50;99106.25;;;16.65;42.96
66857;BME280;53766;50.280;19.160;2023-04-04T06:31:18;99109.72;;;16.65;42.96
66857;BME280;53766;50.280;19.160;2023-04-04T06:33:45;99106.91;;;16.67;43.08
66857;BME280;53766;50.280;19.160;2023-04-04T06:36:13;99104.91;;;16.69;42.89
66857;BME280;53766;50.280;19.160;2023-04-04T06:38:41;99101.59;;;16.67;42.97
66857;BME280;53766;50.280;19.160;2023-04-04T06:41:08;99103.25;;;16.68;42.85
66857;BME280;53766;50.280;19.160;2023-04-04T06:43:35;99104.06;;;16.69;42.72
66857;BME280;53766;50.280;19.160;2023-04-04T06:46:04;99110.22;;;16.69;42.72
66857;BME280;53766;50.280;19.160;2023-04-04T06:48:32;99105.72;;;16.70;42.43
66857;BME280;53766;50.280;19.160;2023-04-04T06:51:00;99106.56;;;16.70;42.37
66857;BME280;53766;50.280;19.160;2023-04-04T06:53:27;99111.88;;;16.70;42.37
66857;BME280;53766;50.280;19.160;2023-04-04T06:55:56;99096.75;;;16.71;42.15
66857;BME280;53766;50.280;19.160;2023-04-04T06:58:24;99099.22;;;16.72;41.84
66857;BME280;53766;50.280;19.160;2023-04-04T07:00:51;99097.56;;;16.71;41.86
66857;BME280;53766;50.280;19.160;2023-04-04T07:03:19;99097.41;;;16.73;41.70
66857;BME280;53766;50.280;19.160;2023-04-04T07:05:47;99092.72;;;16.75;41.53
66857;BME280;53766;50.280;19.160;2023-04-04T07:08:14;99106.19;;;16.73;41.36
66857;BME280;53766;50.280;19.160;2023-04-04T07:10:41;99100.72;;;16.75;41.36
66857;BME280;53766;50.280;19.160;2023-04-04T07:13:09;99104.19;;;16.75;41.13
66857;BME280;53766;50.280;19.160;2023-04-04T07:15:37;99107.50;;;16.77;41.10
66857;BME280;53766;50.280;19.160;2023-04-04T07:18:04;99105.84;;;16.76;41.21
66857;BME280;53766;50.280;19.160;2023-04-04T07:20:32;99103.81;;;16.78;41.17
66857;BME280;53766;50.280;19.160;2023-04-04T07:22:59;99102.19;;;16.77;41.15
66857;BME280;53766;50.280;19.160;2023-04-04T07:25:27;99102.19;;;16.77;41.34
66857;BME280;53766;50.280;19.160;2023-04-04T07:27:54;99094.84;;;16.79;41.23
66857;BME280;53766;50.280;19.160;2023-04-04T07:30:38;99100.88;;;16.81;41.19
66857;BME280;53766;50.280;19.160;2023-04-04T07:33:06;99093.16;;;16.86;42.20
66857;BME280;53766;50.280;19.160;2023-04-04T07:35:34;99094.47;;;16.91;43.90
66857;BME280;53766;50.280;19.160;2023-04-04T07:38:01;99091.63;;;16.92;45.18
66857;BME280;53766;50.280;19.160;2023-04-04T07:40:31;99093.81;;;16.89;43.91
66857;BME280;53766;50.280;19.160;2023-04-04T07:42:58;99107.50;;;16.85;43.14
66857;BME280;53766;50.280;19.160;2023-04-04T07:45:26;99094.19;;;16.85;42.85
66857;BME280;53766;50.280;19.160;2023-04-04T07:47:53;99098.84;;;16.83;42.95
66857;BME280;53766;50.280;19.160;2023-04-04T07:50:21;99097.00;;;16.84;42.98
66857;BME280;53766;50.280;19.160;2023-04-04T07:52:49;99098.84;;;16.83;43.00
66857;BME280;53766;50.280;19.160;2023-04-04T07:55:21;99091.03;;;16.82;43.24
66857;BME280;53766;50.280;19.160;2023-04-04T07:57:51;99084.91;;;16.81;43.44
66857;BME280;53766;50.280;19.160;2023-04-04T08:00:20;99091.69;;;16.84;43.36
66857;BME280;53766;50.280;19.160;2023-04-04T08:02:55;99083.88;;;16.82;43.65
66857;BME280;53766;50.280;19.160;2023-04-04T08:05:23;99086.72;;;16.81;43.63
66857;BME280;53766;50.280;19.160;2023-04-04T08:07:51;99081.22;;;16.82;43.82
66857;BME280;53766;50.280;19.160;2023-04-04T08:10:19;99082.25;;;16.81;43.86
66857;BME280;53766;50.280;19.160;2023-04-04T08:12:48;99080.22;;;16.83;44.07
66857;BME280;53766;50.280;19.160;2023-04-04T08:15:15;99072.25;;;16.83;44.23
66857;BME280;53766;50.280;19.160;2023-04-04T08:17:43;99078.56;;;16.82;44.15
66857;BME280;53766;50.280;19.160;2023-04-04T08:20:11;99075.91;;;16.82;44.22
66857;BME280;53766;50.280;19.160;2023-04-04T08:22:39;99085.56;;;16.83;44.43
66857;BME280;53766;50.280;19.160;2023-04-04T08:25:08;99082.69;;;16.85;44.58
66857;BME280;53766;50.280;19.160;2023-04-04T08:27:40;99085.19;;;16.86;44.76
66857;BME280;53766;50.280;19.160;2023-04-04T08:30:11;99079.88;;;16.86;45.08
66857;BME280;53766;50.280;19.160;2023-04-04T08:32:40;99074.53;;;16.86;45.21
66857;BME280;53766;50.280;19.160;2023-04-04T08:35:08;99073.72;;;16.86;45.19
66857;BME280;53766;50.280;19.160;2023-04-04T08:37:36;99079.50;;;16.90;45.38
66857;BME280;53766;50.280;19.160;2023-04-04T08:40:06;99071.50;;;16.90;45.33
66857;BME280;53766;50.280;19.160;2023-04-04T08:42:35;99074.00;;;16.91;45.40
66857;BME280;53766;50.280;19.160;2023-04-04T08:45:03;99076.50;;;16.93;45.52
66857;BME280;53766;50.280;19.160;2023-04-04T08:47:31;99066.84;;;16.92;45.58
66857;BME280;53766;50.280;19.160;2023-04-04T08:50:06;99073.66;;;16.94;45.81
66857;BME280;53766;50.280;19.160;2023-04-04T08:52:34;99065.19;;;16.91;45.93
66857;BME280;53766;50.280;19.160;2023-04-04T08:55:04;99068.69;;;16.91;45.80
66857;BME280;53766;50.280;19.160;2023-04-04T08:57:31;99059.88;;;16.91;45.74
66857;BME280;53766;50.280;19.160;2023-04-04T08:59:59;99059.06;;;16.90;45.72
66857;BME280;53766;50.280;19.160;2023-04-04T09:05:02;99057.88;;;16.93;46.09
66857;BME280;53766;50.280;19.160;2023-04-04T09:07:36;99055.38;;;16.91;46.03
66857;BME280;53766;50.280;19.160;2023-04-04T09:10:08;99057.88;;;16.93;46.10
66857;BME280;53766;50.280;19.160;2023-04-04T09:12:41;99059.50;;;16.94;46.21
66857;BME280;53766;50.280;19.160;2023-04-04T09:15:10;99055.84;;;16.95;46.37
66857;BME280;53766;50.280;19.160;2023-04-04T09:17:40;99058.34;;;16.96;46.36
66857;BME280;53766;50.280;19.160;2023-04-04T09:20:40;99059.16;;;16.97;46.43
66857;BME280;53766;50.280;19.160;2023-04-04T09:23:18;99051.47;;;17.02;46.45
66857;BME280;53766;50.280;19.160;2023-04-04T09:25:49;99051.47;;;17.02;46.22
66857;BME280;53766;50.280;19.160;2023-04-04T09:28:21;99060.47;;;17.01;46.33
66857;BME280;53766;50.280;19.160;2023-04-04T09:30:50;99063.78;;;17.03;46.71
66857;BME280;53766;50.280;19.160;2023-04-04T09:33:20;99055.16;;;17.01;46.65
66857;BME280;53766;50.280;19.160;2023-04-04T09:35:54;99052.47;;;17.01;46.75
66857;BME280;53766;50.280;19.160;2023-04-04T09:38:25;99057.81;;;17.01;46.68
66857;BME280;53766;50.280;19.160;2023-04-04T09:40:54;99055.16;;;17.01;46.69
66857;BME280;53766;50.280;19.160;2023-04-04T09:43:23;99051.28;;;17.03;46.74
66857;BME280;53766;50.280;19.160;2023-04-04T09:45:53;99050.47;;;17.03;46.73
66857;BME280;53766;50.280;19.160;2023-04-04T09:48:33;99050.66;;;17.01;46.78
66857;BME280;53766;50.280;19.160;2023-04-04T09:51:06;99058.09;;;17.06;46.65
66857;BME280;53766;50.280;19.160;2023-04-04T09:53:38;99054.78;;;17.04;46.76
66857;BME280;53766;50.280;19.160;2023-04-04T09:56:09;99051.13;;;17.05;46.77
66857;BME280;53766;50.280;19.160;2023-04-04T09:58:37;99045.81;;;17.05;46.69
66857;BME280;53766;50.280;19.160;2023-04-04T10:01:19;99052.75;;;17.06;46.52
66857;BME280;53766;50.280;19.160;2023-04-04T10:03:53;99047.44;;;17.06;46.57
66857;BME280;53766;50.280;19.160;2023-04-04T10:06:21;99055.25;;;17.08;46.55
66857;BME280;53766;50.280;19.160;2023-04-04T10:08:49;99045.81;;;17.05;46.48
66857;BME280;53766;50.280;19.160;2023-04-04T10:11:31;99044.94;;;17.04;46.65
66857;BME280;53766;50.280;19.160;2023-04-04T10:14:00;99046.13;;;17.02;46.72
66857;BME280;53766;50.280;19.160;2023-04-04T10:16:33;99052.13;;;17.04;46.69
66857;BME280;53766;50.280;19.160;2023-04-04T10:19:04;99059.28;;;17.03;46.60
66857;BME280;53766;50.280;19.160;2023-04-04T10:21:34;99046.97;;;17.02;46.63
66857;BME280;53766;50.280;19.160;2023-04-04T10:24:02;99053.13;;;17.03;46.61
66857;BME280;53766;50.280;19.160;2023-04-04T10:26:35;99051.47;;;17.02;46.69
66857;BME280;53766;50.280;19.160;2023-04-04T10:29:03;99044.50;;;17.01;46.70
66857;BME280;53766;50.280;19.160;2023-04-04T10:31:32;99045.31;;;17.01;46.74
66857;BME280;53766;50.280;19.160;2023-04-04T10:34:09;99039.63;;;17.04;46.65
66857;BME280;53766;50.280;19.160;2023-04-04T10:36:44;99040.47;;;17.05;46.82
66857;BME280;53766;50.280;19.160;2023-04-04T10:39:24;99039.81;;;17.03;46.83
66857;BME280;53766;50.280;19.160;2023-04-04T10:41:54;99038.81;;;17.04;46.94
66857;BME280;53766;50.280;19.160;2023-04-04T10:44:31;99037.81;;;17.05;47.06
66857;BME280;53766;50.280;19.160;2023-04-04T10:47:20;99050.09;;;17.06;47.03
66857;BME280;53766;50.280;19.160;2023-04-04T10:49:50;99049.06;;;17.07;47.06
66857;BME280;53766;50.280;19.160;2023-04-04T10:52:20;99033.97;;;17.08;46.95
66857;BME280;53766;50.280;19.160;2023-04-04T10:54:50;99025.97;;;17.08;46.93
66857;BME280;53766;50.280;19.160;2023-04-04T10:57:19;99042.13;;;17.06;47.09
66857;BME280;53766;50.280;19.160;2023-04-04T11:02:55;99048.47;;;17.05;47.05
66857;BME280;53766;50.280;19.160;2023-04-04T11:08:02;99043.75;;;17.07;47.07
66857;BME280;53766;50.280;19.160;2023-04-04T11:10:36;99033.13;;;17.07;47.03
66857;BME280;53766;50.280;19.160;2023-04-04T11:13:24;99026.97;;;17.06;46.86
66857;BME280;53766;50.280;19.160;2023-04-04T11:16:02;99029.28;;;17.10;46.72
66857;BME280;53766;50.280;19.160;2023-04-04T11:21:01;99019.72;;;17.15;46.74
66857;BME280;53766;50.280;19.160;2023-04-04T11:26:33;99021.19;;;17.18;46.51
66857;BME280;53766;50.280;19.160;2023-04-04T11:29:03;99014.72;;;17.20;46.56
66857;BME280;53766;50.280;19.160;2023-04-04T11:31:38;99023.03;;;17.17;46.72
66857;BME280;53766;50.280;19.160;2023-04-04T11:42:05;99000.09;;;17.16;46.52
66857;BME280;53766;50.280;19.160;2023-04-04T11:44:41;99014.06;;;17.18;46.48
66857;BME280;53766;50.280;19.160;2023-04-04T11:47:11;99011.41;;;17.18;46.42
66857;BME280;53766;50.280;19.160;2023-04-04T11:49:42;99010.03;;;17.22;46.31
66857;BME280;53766;50.280;19.160;2023-04-04T11:52:14;99015.69;;;17.19;46.49
66857;BME280;53766;50.280;19.160;2023-04-04T11:54:44;99012.41;;;17.17;46.48
66857;BME280;53766;50.280;19.160;2023-04-04T11:57:17;99015.44;;;17.14;46.46
66857;BME280;53766;50.280;19.160;2023-04-04T11:59:46;99016.44;;;17.13;46.39
66857;BME280;53766;50.280;19.160;2023-04-04T12:02:19;99023.41;;;17.14;46.50
66857;BME280;53766;50.280;19.160;2023-04-04T12:04:50;99014.06;;;17.18;46.36
66857;BME280;53766;50.280;19.160;2023-04-04T12:07:18;99010.38;;;17.19;46.22
66857;BME280;53766;50.280;19.160;2023-04-04T12:09:46;99022.22;;;17.17;46.50
66857;BME280;53766;50.280;19.160;2023-04-04T12:12:14;99012.13;;;17.12;46.42
66857;BME280;53766;50.280;19.160;2023-04-04T12:14:45;99014.78;;;17.12;46.48
66857;BME280;53766;50.280;19.160;2023-04-04T12:17:14;99015.59;;;17.13;46.52
66857;BME280;53766;50.280;19.160;2023-04-04T12:19:43;99016.06;;;17.16;46.20
66857;BME280;53766;50.280;19.160;2023-04-04T12:22:10;99020.75;;;17.14;46.28
66857;BME280;53766;50.280;19.160;2023-04-04T12:24:38;99016.44;;;17.13;46.27
66857;BME280;53766;50.280;19.160;2023-04-04T12:27:05;99009.47;;;17.12;46.22
66857;BME280;53766;50.280;19.160;2023-04-04T12:29:33;99014.78;;;17.12;46.24
66857;BME280;53766;50.280;19.160;2023-04-04T12:32:05;99014.31;;;17.09;46.24
66857;BME280;53766;50.280;19.160;2023-04-04T12:34:34;99013.50;;;17.08;46.31
66857;BME280;53766;50.280;19.160;2023-04-04T12:37:09;99022.47;;;17.07;46.35
66857;BME280;53766;50.280;19.160;2023-04-04T12:39:46;99014.69;;;17.05;46.32
66857;BME280;53766;50.280;19.160;2023-04-04T12:42:22;99020.81;;;17.06;46.34
66857;BME280;53766;50.280;19.160;2023-04-04T12:44:51;99023.88;;;17.03;46.51
66857;BME280;53766;50.280;19.160;2023-04-04T12:47:19;99023.22;;;17.01;46.54
66857;BME280;53766;50.280;19.160;2023-04-04T12:49:52;99020.00;;;17.05;46.34
66857;BME280;53766;50.280;19.160;2023-04-04T12:52:28;99022.84;;;17.04;46.38
66857;BME280;53766;50.280;19.160;2023-04-04T12:55:05;99024.69;;;17.03;46.36
66857;BME280;53766;50.280;19.160;2023-04-04T12:57:37;99031.19;;;17.01;46.30
66857;BME280;53766;50.280;19.160;2023-04-04T13:00:05;99039.53;;;16.98;46.43
66857;BME280;53766;50.280;19.160;2023-04-04T13:02:37;99035.22;;;16.97;46.45
66857;BME280;53766;50.280;19.160;2023-04-04T13:05:05;99033.56;;;16.96;46.49
66857;BME280;53766;50.280;19.160;2023-04-04T13:07:35;99025.56;;;16.96;46.37
66857;BME280;53766;50.280;19.160;2023-04-04T13:10:13;99027.41;;;16.95;46.31
66857;BME280;53766;50.280;19.160;2023-04-04T13:12:59;99028.22;;;16.96;46.30
66857;BME280;53766;50.280;19.160;2023-04-04T13:15:46;99027.25;;;16.97;46.34
66857;BME280;53766;50.280;19.160;2023-04-04T13:18:23;99032.56;;;16.97;46.39
66857;BME280;53766;50.280;19.160;2023-04-04T13:20:53;99037.88;;;16.97;46.46
66857;BME280;53766;50.280;19.160;2023-04-04T13:23:21;99037.88;;;16.97;46.26
66857;BME280;53766;50.280;19.160;2023-04-04T13:25:49;99036.22;;;16.96;46.20
66857;BME280;53766;50.280;19.160;2023-04-04T13:28:17;99032.91;;;16.94;46.30